sensor_id;sensor_type;location;lat;lon;timestamp;temperature;humidity
46043;DHT22;32533;-33.854;18.542;2022-07-23T00:01:48;15.70;93.30
46043;DHT22;32533;-33.854;18.542;2022-07-23T00:04:15;15.70;93.30
46043;DHT22;32533;-33.854;18.542;2022-07-23T00:06:41;15.70;93.30
46043;DHT22;32533;-33.854;18.542;2022-07-23T00:09:08;15.70;93.30
46043;DHT22;32533;-33.854;18.542;2022-07-23T00:11:34;15.70;93.30
46043;DHT22;32533;-33.854;18.542;2022-07-23T00:14:01;15.70;93.30
46043;DHT22;32533;-33.854;18.542;2022-07-23T00:16:27;15.70;93.40
46043;DHT22;32533;-33.854;18.542;2022-07-23T00:18:55;15.70;93.40
46043;DHT22;32533;-33.854;18.542;2022-07-23T00:21:21;15.70;93.40
46043;DHT22;32533;-33.854;18.542;2022-07-23T00:23:47;15.70;93.50
46043;DHT22;32533;-33.854;18.542;2022-07-23T00:26:14;15.70;93.50
46043;DHT22;32533;-33.854;18.542;2022-07-23T00:28:40;15.70;93.50
46043;DHT22;32533;-33.854;18.542;2022-07-23T00:31:07;15.70;93.50
46043;DHT22;32533;-33.854;18.542;2022-07-23T00:33:33;15.70;93.60
46043;DHT22;32533;-33.854;18.542;2022-07-23T00:36:00;15.70;93.60
46043;DHT22;32533;-33.854;18.542;2022-07-23T00:38:26;15.60;93.60
46043;DHT22;32533;-33.854;18.542;2022-07-23T00:40:53;15.60;93.60
46043;DHT22;32533;-33.854;18.542;2022-07-23T00:43:23;15.60;93.60
46043;DHT22;32533;-33.854;18.542;2022-07-23T00:45:50;15.60;93.60
46043;DHT22;32533;-33.854;18.542;2022-07-23T00:48:17;15.60;93.50
46043;DHT22;32533;-33.854;18.542;2022-07-23T00:50:44;15.60;93.50
46043;DHT22;32533;-33.854;18.542;2022-07-23T00:53:11;15.60;93.50
46043;DHT22;32533;-33.854;18.542;2022-07-23T00:55:38;15.60;93.50
46043;DHT22;32533;-33.854;18.542;2022-07-23T00:58:05;15.50;93.50
46043;DHT22;32533;-33.854;18.542;2022-07-23T01:00:32;15.60;93.50
46043;DHT22;32533;-33.854;18.542;2022-07-23T01:02:58;15.50;93.50
46043;DHT22;32533;-33.854;18.542;2022-07-23T01:05:25;15.50;93.50
46043;DHT22;32533;-33.854;18.542;2022-07-23T01:07:52;15.50;93.50
46043;DHT22;32533;-33.854;18.542;2022-07-23T01:10:18;15.50;93.70
46043;DHT22;32533;-33.854;18.542;2022-07-23T01:13:08;15.50;93.40
46043;DHT22;32533;-33.854;18.542;2022-07-23T01:15:35;15.40;93.30
46043;DHT22;32533;-33.854;18.542;2022-07-23T01:18:03;15.40;93.20
46043;DHT22;32533;-33.854;18.542;2022-07-23T01:20:30;15.40;93.20
46043;DHT22;32533;-33.854;18.542;2022-07-23T01:22:58;15.40;93.20
46043;DHT22;32533;-33.854;18.542;2022-07-23T01:25:25;15.40;93.10
46043;DHT22;32533;-33.854;18.542;2022-07-23T01:27:53;15.40;93.10
46043;DHT22;32533;-33.854;18.542;2022-07-23T01:30:20;15.40;93.00
46043;DHT22;32533;-33.854;18.542;2022-07-23T01:32:46;15.40;93.00
46043;DHT22;32533;-33.854;18.542;2022-07-23T01:35:13;15.40;93.00
46043;DHT22;32533;-33.854;18.542;2022-07-23T01:37:39;15.30;93.00
46043;DHT22;32533;-33.854;18.542;2022-07-23T01:40:06;15.30;92.90
46043;DHT22;32533;-33.854;18.542;2022-07-23T01:42:33;15.30;93.00
46043;DHT22;32533;-33.854;18.542;2022-07-23T01:45:00;15.30;92.90
46043;DHT22;32533;-33.854;18.542;2022-07-23T01:47:26;15.30;92.90
46043;DHT22;32533;-33.854;18.542;2022-07-23T01:49:53;15.30;92.80
46043;DHT22;32533;-33.854;18.542;2022-07-23T01:52:19;15.30;92.80
46043;DHT22;32533;-33.854;18.542;2022-07-23T01:54:46;15.20;92.70
46043;DHT22;32533;-33.854;18.542;2022-07-23T01:57:12;15.20;92.70
46043;DHT22;32533;-33.854;18.542;2022-07-23T01:59:39;15.20;92.60
46043;DHT22;32533;-33.854;18.542;2022-07-23T02:02:05;15.20;92.60
46043;DHT22;32533;-33.854;18.542;2022-07-23T02:04:32;15.20;92.60
46043;DHT22;32533;-33.854;18.542;2022-07-23T02:07:03;15.20;92.70
46043;DHT22;32533;-33.854;18.542;2022-07-23T02:09:29;15.20;92.70
46043;DHT22;32533;-33.854;18.542;2022-07-23T02:11:56;15.20;92.70
46043;DHT22;32533;-33.854;18.542;2022-07-23T02:14:24;15.20;92.70
46043;DHT22;32533;-33.854;18.542;2022-07-23T02:16:51;15.20;92.70
46043;DHT22;32533;-33.854;18.542;2022-07-23T02:19:17;15.20;92.70
46043;DHT22;32533;-33.854;18.542;2022-07-23T02:21:44;15.20;92.80
46043;DHT22;32533;-33.854;18.542;2022-07-23T02:24:10;15.20;92.80
46043;DHT22;32533;-33.854;18.542;2022-07-23T02:26:37;15.20;92.90
46043;DHT22;32533;-33.854;18.542;2022-07-23T02:29:04;15.20;92.90
46043;DHT22;32533;-33.854;18.542;2022-07-23T02:31:31;15.20;92.90
46043;DHT22;32533;-33.854;18.542;2022-07-23T02:33:58;15.20;92.90
46043;DHT22;32533;-33.854;18.542;2022-07-23T02:36:24;15.20;92.80
46043;DHT22;32533;-33.854;18.542;2022-07-23T02:38:51;15.20;92.70
46043;DHT22;32533;-33.854;18.542;2022-07-23T02:41:17;15.20;92.70
46043;DHT22;32533;-33.854;18.542;2022-07-23T02:43:44;15.20;92.60
46043;DHT22;32533;-33.854;18.542;2022-07-23T02:46:10;15.20;92.50
46043;DHT22;32533;-33.854;18.542;2022-07-23T02:48:37;15.20;92.40
46043;DHT22;32533;-33.854;18.542;2022-07-23T02:51:03;15.10;92.40
46043;DHT22;32533;-33.854;18.542;2022-07-23T02:53:30;15.10;92.40
46043;DHT22;32533;-33.854;18.542;2022-07-23T02:55:56;15.10;92.50
46043;DHT22;32533;-33.854;18.542;2022-07-23T02:58:23;15.10;92.50
46043;DHT22;32533;-33.854;18.542;2022-07-23T03:00:50;15.10;92.50
46043;DHT22;32533;-33.854;18.542;2022-07-23T03:03:17;15.10;92.70
46043;DHT22;32533;-33.854;18.542;2022-07-23T03:05:43;15.10;92.70
46043;DHT22;32533;-33.854;18.542;2022-07-23T03:08:10;15.10;92.70
46043;DHT22;32533;-33.854;18.542;2022-07-23T03:10:36;15.20;92.90
46043;DHT22;32533;-33.854;18.542;2022-07-23T03:13:03;15.20;92.90
46043;DHT22;32533;-33.854;18.542;2022-07-23T03:15:30;15.10;92.90
46043;DHT22;32533;-33.854;18.542;2022-07-23T03:17:56;15.20;93.00
46043;DHT22;32533;-33.854;18.542;2022-07-23T03:20:23;15.10;92.90
46043;DHT22;32533;-33.854;18.542;2022-07-23T03:22:49;15.10;92.90
46043;DHT22;32533;-33.854;18.542;2022-07-23T03:25:16;15.10;92.90
46043;DHT22;32533;-33.854;18.542;2022-07-23T03:27:43;15.10;92.90
46043;DHT22;32533;-33.854;18.542;2022-07-23T03:30:11;15.10;92.80
46043;DHT22;32533;-33.854;18.542;2022-07-23T03:32:38;15.10;92.80
46043;DHT22;32533;-33.854;18.542;2022-07-23T03:35:05;15.10;92.80
46043;DHT22;32533;-33.854;18.542;2022-07-23T03:37:31;15.10;92.90
46043;DHT22;32533;-33.854;18.542;2022-07-23T03:39:58;15.10;92.90
46043;DHT22;32533;-33.854;18.542;2022-07-23T03:42:24;15.10;92.90
46043;DHT22;32533;-33.854;18.542;2022-07-23T03:44:51;15.10;93.00
46043;DHT22;32533;-33.854;18.542;2022-07-23T03:47:17;15.00;92.90
46043;DHT22;32533;-33.854;18.542;2022-07-23T03:49:48;15.10;92.90
46043;DHT22;32533;-33.854;18.542;2022-07-23T03:52:15;15.00;92.90
46043;DHT22;32533;-33.854;18.542;2022-07-23T03:54:41;15.00;92.90
46043;DHT22;32533;-33.854;18.542;2022-07-23T03:57:08;15.00;92.80
46043;DHT22;32533;-33.854;18.542;2022-07-23T03:59:34;15.00;92.80
46043;DHT22;32533;-33.854;18.542;2022-07-23T04:02:01;15.00;92.80
46043;DHT22;32533;-33.854;18.542;2022-07-23T04:04:27;15.00;92.80
46043;DHT22;32533;-33.854;18.542;2022-07-23T04:06:54;15.00;92.70
46043;DHT22;32533;-33.854;18.542;2022-07-23T04:09:20;15.00;92.60
46043;DHT22;32533;-33.854;18.542;2022-07-23T04:11:47;14.90;92.60
46043;DHT22;32533;-33.854;18.542;2022-07-23T04:14:13;14.90;92.60
46043;DHT22;32533;-33.854;18.542;2022-07-23T04:16:40;14.90;92.60
46043;DHT22;32533;-33.854;18.542;2022-07-23T04:19:06;14.90;92.60
46043;DHT22;32533;-33.854;18.542;2022-07-23T04:21:33;14.90;92.70
46043;DHT22;32533;-33.854;18.542;2022-07-23T04:23:59;14.90;92.70
46043;DHT22;32533;-33.854;18.542;2022-07-23T04:26:26;14.90;92.70
46043;DHT22;32533;-33.854;18.542;2022-07-23T04:28:52;14.90;92.70
46043;DHT22;32533;-33.854;18.542;2022-07-23T04:31:18;14.90;92.70
46043;DHT22;32533;-33.854;18.542;2022-07-23T04:33:45;14.90;92.80
46043;DHT22;32533;-33.854;18.542;2022-07-23T04:36:11;15.00;92.80
46043;DHT22;32533;-33.854;18.542;2022-07-23T04:38:38;14.90;92.80
46043;DHT22;32533;-33.854;18.542;2022-07-23T04:41:04;15.00;92.80
46043;DHT22;32533;-33.854;18.542;2022-07-23T04:43:31;14.90;92.80
46043;DHT22;32533;-33.854;18.542;2022-07-23T04:45:57;14.90;93.10
46043;DHT22;32533;-33.854;18.542;2022-07-23T04:48:24;14.90;92.90
46043;DHT22;32533;-33.854;18.542;2022-07-23T04:50:50;14.90;92.80
46043;DHT22;32533;-33.854;18.542;2022-07-23T04:53:17;15.00;92.80
46043;DHT22;32533;-33.854;18.542;2022-07-23T04:55:44;14.90;93.00
46043;DHT22;32533;-33.854;18.542;2022-07-23T04:58:11;14.90;93.20
46043;DHT22;32533;-33.854;18.542;2022-07-23T05:00:37;15.00;93.20
46043;DHT22;32533;-33.854;18.542;2022-07-23T05:03:04;14.90;93.20
46043;DHT22;32533;-33.854;18.542;2022-07-23T05:05:30;14.90;93.20
46043;DHT22;32533;-33.854;18.542;2022-07-23T05:07:57;14.90;93.20
46043;DHT22;32533;-33.854;18.542;2022-07-23T05:10:23;14.90;93.10
46043;DHT22;32533;-33.854;18.542;2022-07-23T05:12:50;14.90;93.00
46043;DHT22;32533;-33.854;18.542;2022-07-23T05:15:16;14.90;93.00
46043;DHT22;32533;-33.854;18.542;2022-07-23T05:17:43;14.90;93.00
46043;DHT22;32533;-33.854;18.542;2022-07-23T05:20:09;14.90;93.00
46043;DHT22;32533;-33.854;18.542;2022-07-23T05:22:36;14.90;93.10
46043;DHT22;32533;-33.854;18.542;2022-07-23T05:25:03;14.90;93.20
46043;DHT22;32533;-33.854;18.542;2022-07-23T05:27:30;14.90;93.20
46043;DHT22;32533;-33.854;18.542;2022-07-23T05:29:57;14.90;93.20
46043;DHT22;32533;-33.854;18.542;2022-07-23T05:32:24;14.90;93.30
46043;DHT22;32533;-33.854;18.542;2022-07-23T05:34:50;14.90;93.20
46043;DHT22;32533;-33.854;18.542;2022-07-23T05:37:17;14.80;93.10
46043;DHT22;32533;-33.854;18.542;2022-07-23T05:39:44;14.80;93.10
46043;DHT22;32533;-33.854;18.542;2022-07-23T05:42:10;14.90;93.10
46043;DHT22;32533;-33.854;18.542;2022-07-23T05:44:37;14.80;92.90
46043;DHT22;32533;-33.854;18.542;2022-07-23T05:47:03;14.90;92.90
46043;DHT22;32533;-33.854;18.542;2022-07-23T05:49:29;14.80;92.80
46043;DHT22;32533;-33.854;18.542;2022-07-23T05:51:56;14.80;92.80
46043;DHT22;32533;-33.854;18.542;2022-07-23T05:54:22;14.80;92.80
46043;DHT22;32533;-33.854;18.542;2022-07-23T05:56:49;14.80;92.80
46043;DHT22;32533;-33.854;18.542;2022-07-23T05:59:16;14.80;93.00
46043;DHT22;32533;-33.854;18.542;2022-07-23T06:01:42;14.80;93.10
46043;DHT22;32533;-33.854;18.542;2022-07-23T06:04:09;14.80;93.10
46043;DHT22;32533;-33.854;18.542;2022-07-23T06:06:35;14.80;93.00
46043;DHT22;32533;-33.854;18.542;2022-07-23T06:09:02;14.80;92.90
46043;DHT22;32533;-33.854;18.542;2022-07-23T06:11:28;14.70;92.80
46043;DHT22;32533;-33.854;18.542;2022-07-23T06:13:55;14.80;92.70
46043;DHT22;32533;-33.854;18.542;2022-07-23T06:16:22;14.70;92.70
46043;DHT22;32533;-33.854;18.542;2022-07-23T06:18:48;14.70;92.70
46043;DHT22;32533;-33.854;18.542;2022-07-23T06:21:15;14.70;92.70
46043;DHT22;32533;-33.854;18.542;2022-07-23T06:23:41;14.70;92.70
46043;DHT22;32533;-33.854;18.542;2022-07-23T06:26:07;14.70;92.80
46043;DHT22;32533;-33.854;18.542;2022-07-23T06:28:34;14.80;92.80
46043;DHT22;32533;-33.854;18.542;2022-07-23T06:31:00;14.70;92.90
46043;DHT22;32533;-33.854;18.542;2022-07-23T06:33:27;14.80;93.00
46043;DHT22;32533;-33.854;18.542;2022-07-23T06:35:54;14.80;93.00
46043;DHT22;32533;-33.854;18.542;2022-07-23T06:38:20;14.80;93.00
46043;DHT22;32533;-33.854;18.542;2022-07-23T06:40:47;14.80;93.10
46043;DHT22;32533;-33.854;18.542;2022-07-23T06:43:13;14.80;93.00
46043;DHT22;32533;-33.854;18.542;2022-07-23T06:45:40;14.80;93.00
46043;DHT22;32533;-33.854;18.542;2022-07-23T06:48:06;14.90;93.00
46043;DHT22;32533;-33.854;18.542;2022-07-23T06:50:33;14.90;93.00
46043;DHT22;32533;-33.854;18.542;2022-07-23T06:53:00;14.90;93.00
46043;DHT22;32533;-33.854;18.542;2022-07-23T06:55:27;14.90;93.00
46043;DHT22;32533;-33.854;18.542;2022-07-23T06:57:53;14.90;93.00
46043;DHT22;32533;-33.854;18.542;2022-07-23T07:00:19;14.90;93.00
46043;DHT22;32533;-33.854;18.542;2022-07-23T07:02:46;14.90;93.00
46043;DHT22;32533;-33.854;18.542;2022-07-23T07:05:12;14.90;93.10
46043;DHT22;32533;-33.854;18.542;2022-07-23T07:07:39;14.90;93.10
46043;DHT22;32533;-33.854;18.542;2022-07-23T07:10:06;14.90;93.20
46043;DHT22;32533;-33.854;18.542;2022-07-23T07:12:32;15.00;93.20
46043;DHT22;32533;-33.854;18.542;2022-07-23T07:14:59;15.00;93.20
46043;DHT22;32533;-33.854;18.542;2022-07-23T07:17:26;15.00;93.20
46043;DHT22;32533;-33.854;18.542;2022-07-23T07:19:52;15.00;93.20
46043;DHT22;32533;-33.854;18.542;2022-07-23T07:22:19;15.00;93.10
46043;DHT22;32533;-33.854;18.542;2022-07-23T07:24:45;15.00;93.10
46043;DHT22;32533;-33.854;18.542;2022-07-23T07:27:12;15.00;93.10
46043;DHT22;32533;-33.854;18.542;2022-07-23T07:29:38;15.00;93.10
46043;DHT22;32533;-33.854;18.542;2022-07-23T07:32:05;15.00;93.10
46043;DHT22;32533;-33.854;18.542;2022-07-23T07:34:32;15.00;93.20
46043;DHT22;32533;-33.854;18.542;2022-07-23T07:36:58;15.00;93.30
46043;DHT22;32533;-33.854;18.542;2022-07-23T07:39:25;15.00;93.30
46043;DHT22;32533;-33.854;18.542;2022-07-23T07:41:51;15.10;93.30
46043;DHT22;32533;-33.854;18.542;2022-07-23T07:44:18;15.00;93.30
46043;DHT22;32533;-33.854;18.542;2022-07-23T07:46:44;15.00;93.30
46043;DHT22;32533;-33.854;18.542;2022-07-23T07:49:11;15.10;93.40
46043;DHT22;32533;-33.854;18.542;2022-07-23T07:51:37;15.10;93.30
46043;DHT22;32533;-33.854;18.542;2022-07-23T07:54:04;15.10;93.40
46043;DHT22;32533;-33.854;18.542;2022-07-23T07:56:30;15.10;93.40
46043;DHT22;32533;-33.854;18.542;2022-07-23T07:58:57;15.10;93.40
46043;DHT22;32533;-33.854;18.542;2022-07-23T08:01:24;15.10;93.30
46043;DHT22;32533;-33.854;18.542;2022-07-23T08:03:50;15.10;93.20
46043;DHT22;32533;-33.854;18.542;2022-07-23T08:06:17;15.10;93.40
46043;DHT22;32533;-33.854;18.542;2022-07-23T08:08:43;15.10;93.10
46043;DHT22;32533;-33.854;18.542;2022-07-23T08:11:10;15.10;93.10
46043;DHT22;32533;-33.854;18.542;2022-07-23T08:13:36;15.10;93.10
46043;DHT22;32533;-33.854;18.542;2022-07-23T08:16:03;15.10;93.30
46043;DHT22;32533;-33.854;18.542;2022-07-23T08:18:30;15.20;93.00
46043;DHT22;32533;-33.854;18.542;2022-07-23T08:20:56;15.20;93.00
46043;DHT22;32533;-33.854;18.542;2022-07-23T08:23:23;15.20;93.10
46043;DHT22;32533;-33.854;18.542;2022-07-23T08:25:49;15.20;93.20
46043;DHT22;32533;-33.854;18.542;2022-07-23T08:28:16;15.30;93.20
46043;DHT22;32533;-33.854;18.542;2022-07-23T08:30:45;15.30;93.20
46043;DHT22;32533;-33.854;18.542;2022-07-23T08:33:15;15.40;93.10
46043;DHT22;32533;-33.854;18.542;2022-07-23T08:35:47;15.50;92.60
46043;DHT22;32533;-33.854;18.542;2022-07-23T08:38:15;15.50;92.20
46043;DHT22;32533;-33.854;18.542;2022-07-23T08:40:51;15.50;91.80
46043;DHT22;32533;-33.854;18.542;2022-07-23T08:43:21;15.50;91.50
46043;DHT22;32533;-33.854;18.542;2022-07-23T08:45:50;15.50;91.60
46043;DHT22;32533;-33.854;18.542;2022-07-23T08:48:21;15.60;91.80
46043;DHT22;32533;-33.854;18.542;2022-07-23T08:50:56;15.60;92.30
46043;DHT22;32533;-33.854;18.542;2022-07-23T08:53:24;15.70;92.80
46043;DHT22;32533;-33.854;18.542;2022-07-23T08:55:53;15.70;92.90
46043;DHT22;32533;-33.854;18.542;2022-07-23T08:58:20;15.80;92.90
46043;DHT22;32533;-33.854;18.542;2022-07-23T09:00:48;15.70;92.80
46043;DHT22;32533;-33.854;18.542;2022-07-23T09:03:32;15.80;92.80
46043;DHT22;32533;-33.854;18.542;2022-07-23T09:06:00;15.80;92.90
46043;DHT22;32533;-33.854;18.542;2022-07-23T09:08:40;15.80;92.90
46043;DHT22;32533;-33.854;18.542;2022-07-23T09:11:12;15.90;93.00
46043;DHT22;32533;-33.854;18.542;2022-07-23T09:13:52;15.90;92.90
46043;DHT22;32533;-33.854;18.542;2022-07-23T09:16:31;15.90;92.90
46043;DHT22;32533;-33.854;18.542;2022-07-23T09:19:00;15.90;92.70
46043;DHT22;32533;-33.854;18.542;2022-07-23T09:21:34;16.00;92.50
46043;DHT22;32533;-33.854;18.542;2022-07-23T09:31:59;16.00;91.20
46043;DHT22;32533;-33.854;18.542;2022-07-23T09:34:31;16.00;91.00
46043;DHT22;32533;-33.854;18.542;2022-07-23T09:37:16;16.10;90.90
46043;DHT22;32533;-33.854;18.542;2022-07-23T09:39:44;16.10;90.50
46043;DHT22;32533;-33.854;18.542;2022-07-23T09:44:52;16.10;89.10
46043;DHT22;32533;-33.854;18.542;2022-07-23T09:47:20;16.20;88.20
46043;DHT22;32533;-33.854;18.542;2022-07-23T09:50:03;16.20;87.10
46043;DHT22;32533;-33.854;18.542;2022-07-23T09:52:45;16.20;85.50
46043;DHT22;32533;-33.854;18.542;2022-07-23T09:55:13;16.20;83.10
46043;DHT22;32533;-33.854;18.542;2022-07-23T09:57:44;16.30;81.30
46043;DHT22;32533;-33.854;18.542;2022-07-23T10:00:12;16.30;81.20
46043;DHT22;32533;-33.854;18.542;2022-07-23T10:02:40;16.30;81.40
46043;DHT22;32533;-33.854;18.542;2022-07-23T10:05:08;16.30;82.30
46043;DHT22;32533;-33.854;18.542;2022-07-23T10:07:38;16.30;82.90
46043;DHT22;32533;-33.854;18.542;2022-07-23T10:10:06;16.20;83.10
46043;DHT22;32533;-33.854;18.542;2022-07-23T10:12:33;16.20;83.20
46043;DHT22;32533;-33.854;18.542;2022-07-23T10:15:04;16.30;83.60
46043;DHT22;32533;-33.854;18.542;2022-07-23T10:17:33;16.30;83.80
46043;DHT22;32533;-33.854;18.542;2022-07-23T10:19:59;16.30;84.00
46043;DHT22;32533;-33.854;18.542;2022-07-23T10:22:31;16.40;84.10
46043;DHT22;32533;-33.854;18.542;2022-07-23T10:33:54;16.60;83.20
46043;DHT22;32533;-33.854;18.542;2022-07-23T10:39:18;16.70;82.90
46043;DHT22;32533;-33.854;18.542;2022-07-23T10:41:45;16.80;82.80
46043;DHT22;32533;-33.854;18.542;2022-07-23T10:44:15;16.80;82.70
46043;DHT22;32533;-33.854;18.542;2022-07-23T10:47:02;16.80;82.60
46043;DHT22;32533;-33.854;18.542;2022-07-23T10:49:47;16.90;82.40
46043;DHT22;32533;-33.854;18.542;2022-07-23T10:54:45;16.90;81.70
46043;DHT22;32533;-33.854;18.542;2022-07-23T10:57:13;16.90;81.40
46043;DHT22;32533;-33.854;18.542;2022-07-23T11:02:50;17.00;80.90
46043;DHT22;32533;-33.854;18.542;2022-07-23T11:05:19;17.00;80.50
46043;DHT22;32533;-33.854;18.542;2022-07-23T11:10:47;17.10;79.90
46043;DHT22;32533;-33.854;18.542;2022-07-23T11:13:37;17.20;79.30
46043;DHT22;32533;-33.854;18.542;2022-07-23T11:16:06;17.20;78.70
46043;DHT22;32533;-33.854;18.542;2022-07-23T11:24:07;17.40;77.10
46043;DHT22;32533;-33.854;18.542;2022-07-23T11:26:47;17.30;76.50
46043;DHT22;32533;-33.854;18.542;2022-07-23T11:31:58;17.40;76.00
46043;DHT22;32533;-33.854;18.542;2022-07-23T11:37:09;17.40;75.10
46043;DHT22;32533;-33.854;18.542;2022-07-23T11:39:36;17.40;74.70
46043;DHT22;32533;-33.854;18.542;2022-07-23T11:42:06;17.40;74.40
46043;DHT22;32533;-33.854;18.542;2022-07-23T11:44:39;17.40;74.20
46043;DHT22;32533;-33.854;18.542;2022-07-23T11:47:08;17.40;73.90
46043;DHT22;32533;-33.854;18.542;2022-07-23T11:49:35;17.50;74.00
46043;DHT22;32533;-33.854;18.542;2022-07-23T11:52:13;17.50;74.00
46043;DHT22;32533;-33.854;18.542;2022-07-23T11:54:57;17.50;73.90
46043;DHT22;32533;-33.854;18.542;2022-07-23T11:57:33;17.50;73.90
46043;DHT22;32533;-33.854;18.542;2022-07-23T12:00:14;17.60;74.00
46043;DHT22;32533;-33.854;18.542;2022-07-23T12:02:43;17.60;74.10
46043;DHT22;32533;-33.854;18.542;2022-07-23T12:05:20;17.60;74.00
46043;DHT22;32533;-33.854;18.542;2022-07-23T12:07:50;17.60;73.80
46043;DHT22;32533;-33.854;18.542;2022-07-23T12:10:25;17.60;73.50
46043;DHT22;32533;-33.854;18.542;2022-07-23T12:12:57;17.60;73.30
46043;DHT22;32533;-33.854;18.542;2022-07-23T12:15:47;17.60;73.20
46043;DHT22;32533;-33.854;18.542;2022-07-23T12:18:20;17.60;73.20
46043;DHT22;32533;-33.854;18.542;2022-07-23T12:20:51;17.60;73.30
46043;DHT22;32533;-33.854;18.542;2022-07-23T12:23:19;17.60;74.30
46043;DHT22;32533;-33.854;18.542;2022-07-23T12:25:48;17.60;74.30
46043;DHT22;32533;-33.854;18.542;2022-07-23T12:28:27;17.60;74.50
46043;DHT22;32533;-33.854;18.542;2022-07-23T12:30:55;17.60;74.60
46043;DHT22;32533;-33.854;18.542;2022-07-23T12:35:55;17.70;73.70
46043;DHT22;32533;-33.854;18.542;2022-07-23T12:38:25;17.80;73.30
46043;DHT22;32533;-33.854;18.542;2022-07-23T12:41:02;17.80;72.90
46043;DHT22;32533;-33.854;18.542;2022-07-23T12:43:37;17.90;72.40
46043;DHT22;32533;-33.854;18.542;2022-07-23T12:46:06;17.90;72.00
46043;DHT22;32533;-33.854;18.542;2022-07-23T12:48:35;17.90;71.70
46043;DHT22;32533;-33.854;18.542;2022-07-23T12:51:06;18.00;71.60
46043;DHT22;32533;-33.854;18.542;2022-07-23T12:56:12;18.00;71.20
46043;DHT22;32533;-33.854;18.542;2022-07-23T12:58:57;18.00;70.90
46043;DHT22;32533;-33.854;18.542;2022-07-23T13:01:26;18.00;71.20
46043;DHT22;32533;-33.854;18.542;2022-07-23T13:06:37;18.10;71.20
46043;DHT22;32533;-33.854;18.542;2022-07-23T13:09:06;18.10;71.50
46043;DHT22;32533;-33.854;18.542;2022-07-23T13:11:33;18.10;71.10
46043;DHT22;32533;-33.854;18.542;2022-07-23T13:14:01;18.10;71.20
46043;DHT22;32533;-33.854;18.542;2022-07-23T13:16:29;18.10;71.20
46043;DHT22;32533;-33.854;18.542;2022-07-23T13:18:56;18.10;70.40
46043;DHT22;32533;-33.854;18.542;2022-07-23T13:21:23;18.10;70.20
46043;DHT22;32533;-33.854;18.542;2022-07-23T13:23:50;18.10;69.80
46043;DHT22;32533;-33.854;18.542;2022-07-23T13:26:16;18.10;69.80
46043;DHT22;32533;-33.854;18.542;2022-07-23T13:28:43;18.00;69.90
46043;DHT22;32533;-33.854;18.542;2022-07-23T13:31:09;18.00;70.00
46043;DHT22;32533;-33.854;18.542;2022-07-23T13:33:36;18.00;69.90
46043;DHT22;32533;-33.854;18.542;2022-07-23T13:36:03;18.00;70.10
46043;DHT22;32533;-33.854;18.542;2022-07-23T13:38:30;17.90;70.40
46043;DHT22;32533;-33.854;18.542;2022-07-23T13:40:56;17.90;70.20
46043;DHT22;32533;-33.854;18.542;2022-07-23T13:43:24;17.90;70.00
46043;DHT22;32533;-33.854;18.542;2022-07-23T13:45:52;17.90;70.30
46043;DHT22;32533;-33.854;18.542;2022-07-23T13:48:19;17.80;70.60
46043;DHT22;32533;-33.854;18.542;2022-07-23T13:50:46;17.80;70.70
46043;DHT22;32533;-33.854;18.542;2022-07-23T13:53:19;17.80;70.80
46043;DHT22;32533;-33.854;18.542;2022-07-23T13:55:47;17.70;71.00
46043;DHT22;32533;-33.854;18.542;2022-07-23T13:58:14;17.60;71.70
46043;DHT22;32533;-33.854;18.542;2022-07-23T14:00:47;17.60;71.90
46043;DHT22;32533;-33.854;18.542;2022-07-23T14:03:15;17.60;71.60
46043;DHT22;32533;-33.854;18.542;2022-07-23T14:05:41;17.60;71.70
46043;DHT22;32533;-33.854;18.542;2022-07-23T14:08:08;17.50;71.80
46043;DHT22;32533;-33.854;18.542;2022-07-23T14:10:34;17.60;72.10
46043;DHT22;32533;-33.854;18.542;2022-07-23T14:13:01;17.50;72.20
46043;DHT22;32533;-33.854;18.542;2022-07-23T14:15:29;17.50;72.20
46043;DHT22;32533;-33.854;18.542;2022-07-23T14:17:56;17.50;72.30
46043;DHT22;32533;-33.854;18.542;2022-07-23T14:20:22;17.50;72.30
46043;DHT22;32533;-33.854;18.542;2022-07-23T14:22:49;17.50;72.40
46043;DHT22;32533;-33.854;18.542;2022-07-23T14:25:16;17.50;72.40
46043;DHT22;32533;-33.854;18.542;2022-07-23T14:27:43;17.50;72.50
46043;DHT22;32533;-33.854;18.542;2022-07-23T14:30:12;17.40;72.20
46043;DHT22;32533;-33.854;18.542;2022-07-23T14:32:39;17.40;72.00
46043;DHT22;32533;-33.854;18.542;2022-07-23T14:35:06;17.40;72.40
46043;DHT22;32533;-33.854;18.542;2022-07-23T14:37:33;17.40;72.70
46043;DHT22;32533;-33.854;18.542;2022-07-23T14:40:00;17.40;73.00
46043;DHT22;32533;-33.854;18.542;2022-07-23T14:42:26;17.40;73.10
46043;DHT22;32533;-33.854;18.542;2022-07-23T14:44:53;17.40;73.40
46043;DHT22;32533;-33.854;18.542;2022-07-23T14:47:20;17.40;73.50
46043;DHT22;32533;-33.854;18.542;2022-07-23T14:49:46;17.40;73.60
46043;DHT22;32533;-33.854;18.542;2022-07-23T14:52:13;17.40;73.30
46043;DHT22;32533;-33.854;18.542;2022-07-23T14:54:39;17.30;72.80
46043;DHT22;32533;-33.854;18.542;2022-07-23T14:57:06;17.30;73.00
46043;DHT22;32533;-33.854;18.542;2022-07-23T14:59:35;17.30;73.00
46043;DHT22;32533;-33.854;18.542;2022-07-23T15:02:02;17.30;73.40
46043;DHT22;32533;-33.854;18.542;2022-07-23T15:04:28;17.30;73.70
46043;DHT22;32533;-33.854;18.542;2022-07-23T15:06:55;17.30;73.90
46043;DHT22;32533;-33.854;18.542;2022-07-23T15:09:21;17.30;73.70
46043;DHT22;32533;-33.854;18.542;2022-07-23T15:11:48;17.30;73.40
46043;DHT22;32533;-33.854;18.542;2022-07-23T15:14:14;17.30;73.50
46043;DHT22;32533;-33.854;18.542;2022-07-23T15:16:42;17.20;73.70
46043;DHT22;32533;-33.854;18.542;2022-07-23T15:19:08;17.20;74.00
46043;DHT22;32533;-33.854;18.542;2022-07-23T15:21:35;17.20;74.00
46043;DHT22;32533;-33.854;18.542;2022-07-23T15:24:01;17.20;74.00
46043;DHT22;32533;-33.854;18.542;2022-07-23T15:26:29;17.20;74.30
46043;DHT22;32533;-33.854;18.542;2022-07-23T15:28:56;17.10;74.60
46043;DHT22;32533;-33.854;18.542;2022-07-23T15:31:25;17.10;74.80
46043;DHT22;32533;-33.854;18.542;2022-07-23T15:33:51;17.10;75.60
46043;DHT22;32533;-33.854;18.542;2022-07-23T15:36:19;17.00;74.80
46043;DHT22;32533;-33.854;18.542;2022-07-23T15:38:47;17.00;75.00
46043;DHT22;32533;-33.854;18.542;2022-07-23T15:41:13;17.00;75.10
46043;DHT22;32533;-33.854;18.542;2022-07-23T15:43:40;17.00;75.40
46043;DHT22;32533;-33.854;18.542;2022-07-23T15:46:07;17.00;75.60
46043;DHT22;32533;-33.854;18.542;2022-07-23T15:48:36;16.90;75.50
46043;DHT22;32533;-33.854;18.542;2022-07-23T15:51:04;16.90;75.80
46043;DHT22;32533;-33.854;18.542;2022-07-23T15:53:32;16.90;76.10
46043;DHT22;32533;-33.854;18.542;2022-07-23T15:55:58;16.90;76.30
46043;DHT22;32533;-33.854;18.542;2022-07-23T15:58:27;16.90;76.30